sensor_id;sensor_type;location;lat;lon;timestamp;temperature;humidity
66337;SHT30;53139;45.576;5.304;2022-09-21T00:00:39;8.68;84.28
66337;SHT30;53139;45.576;5.304;2022-09-21T00:03:42;8.38;86.24
66337;SHT30;53139;45.576;5.304;2022-09-21T00:06:45;8.22;86.09
66337;SHT30;53139;45.576;5.304;2022-09-21T00:09:48;8.31;86.57
66337;SHT30;53139;45.576;5.304;2022-09-21T00:12:49;8.27;87.54
66337;SHT30;53139;45.576;5.304;2022-09-21T00:15:52;8.38;86.63
66337;SHT30;53139;45.576;5.304;2022-09-21T00:18:54;8.36;84.25
66337;SHT30;53139;45.576;5.304;2022-09-21T00:21:57;8.67;83.04
66337;SHT30;53139;45.576;5.304;2022-09-21T00:24:59;8.65;82.69
66337;SHT30;53139;45.576;5.304;2022-09-21T00:28:05;8.40;84.37
66337;SHT30;53139;45.576;5.304;2022-09-21T00:31:10;8.41;84.92
66337;SHT30;53139;45.576;5.304;2022-09-21T00:34:13;8.13;86.85
66337;SHT30;53139;45.576;5.304;2022-09-21T00:37:16;8.10;87.37
66337;SHT30;53139;45.576;5.304;2022-09-21T00:40:19;8.19;83.41
66337;SHT30;53139;45.576;5.304;2022-09-21T00:43:21;8.16;83.07
66337;SHT30;53139;45.576;5.304;2022-09-21T00:46:29;7.99;85.04
66337;SHT30;53139;45.576;5.304;2022-09-21T00:49:33;8.00;85.30
66337;SHT30;53139;45.576;5.304;2022-09-21T00:52:40;7.93;85.93
66337;SHT30;53139;45.576;5.304;2022-09-21T00:55:47;7.90;85.56
66337;SHT30;53139;45.576;5.304;2022-09-21T00:58:53;7.78;86.36
66337;SHT30;53139;45.576;5.304;2022-09-21T01:01:57;7.74;86.67
66337;SHT30;53139;45.576;5.304;2022-09-21T01:05:00;7.83;84.24
66337;SHT30;53139;45.576;5.304;2022-09-21T01:08:06;7.79;84.74
66337;SHT30;53139;45.576;5.304;2022-09-21T01:18:07;7.86;85.75
66337;SHT30;53139;45.576;5.304;2022-09-21T01:24:47;7.78;85.27
66337;SHT30;53139;45.576;5.304;2022-09-21T01:31:03;7.38;88.40
66337;SHT30;53139;45.576;5.304;2022-09-21T01:34:22;7.34;88.27
66337;SHT30;53139;45.576;5.304;2022-09-21T01:37:39;7.43;85.67
66337;SHT30;53139;45.576;5.304;2022-09-21T01:40:45;7.37;84.86
66337;SHT30;53139;45.576;5.304;2022-09-21T01:44:03;7.34;85.92
66337;SHT30;53139;45.576;5.304;2022-09-21T01:50:20;7.17;88.17
66337;SHT30;53139;45.576;5.304;2022-09-21T01:56:34;7.30;86.86
66337;SHT30;53139;45.576;5.304;2022-09-21T01:59:51;7.24;87.13
66337;SHT30;53139;45.576;5.304;2022-09-21T02:03:09;7.33;86.50
66337;SHT30;53139;45.576;5.304;2022-09-21T02:06:14;7.27;86.53
66337;SHT30;53139;45.576;5.304;2022-09-21T02:09:18;7.22;87.08
66337;SHT30;53139;45.576;5.304;2022-09-21T02:12:21;7.19;86.29
66337;SHT30;53139;45.576;5.304;2022-09-21T02:15:31;7.16;87.22
66337;SHT30;53139;45.576;5.304;2022-09-21T02:19:00;7.05;86.68
66337;SHT30;53139;45.576;5.304;2022-09-21T02:22:10;6.93;87.63
66337;SHT30;53139;45.576;5.304;2022-09-21T02:25:20;6.93;86.87
66337;SHT30;53139;45.576;5.304;2022-09-21T02:35:48;6.92;86.59
66337;SHT30;53139;45.576;5.304;2022-09-21T02:38:59;6.85;86.69
66337;SHT30;53139;45.576;5.304;2022-09-21T02:42:15;6.88;86.34
66337;SHT30;53139;45.576;5.304;2022-09-21T02:45:29;6.85;87.08
66337;SHT30;53139;45.576;5.304;2022-09-21T02:48:37;6.81;88.01
66337;SHT30;53139;45.576;5.304;2022-09-21T02:51:46;6.78;88.24
66337;SHT30;53139;45.576;5.304;2022-09-21T02:54:52;6.58;88.52
66337;SHT30;53139;45.576;5.304;2022-09-21T02:57:56;6.74;87.97
66337;SHT30;53139;45.576;5.304;2022-09-21T03:01:00;6.58;87.73
66337;SHT30;53139;45.576;5.304;2022-09-21T03:04:02;6.59;86.53
66337;SHT30;53139;45.576;5.304;2022-09-21T03:07:06;6.68;87.76
66337;SHT30;53139;45.576;5.304;2022-09-21T03:10:09;6.72;87.65
66337;SHT30;53139;45.576;5.304;2022-09-21T03:13:11;6.61;87.58
66337;SHT30;53139;45.576;5.304;2022-09-21T03:16:14;6.51;89.23
66337;SHT30;53139;45.576;5.304;2022-09-21T03:19:17;6.55;87.98
66337;SHT30;53139;45.576;5.304;2022-09-21T03:22:23;6.55;88.09
66337;SHT30;53139;45.576;5.304;2022-09-21T03:25:27;6.51;88.19
66337;SHT30;53139;45.576;5.304;2022-09-21T03:28:29;6.50;88.94
66337;SHT30;53139;45.576;5.304;2022-09-21T03:31:32;6.44;89.10
66337;SHT30;53139;45.576;5.304;2022-09-21T03:34:35;6.31;89.15
66337;SHT30;53139;45.576;5.304;2022-09-21T03:37:38;6.40;88.18
66337;SHT30;53139;45.576;5.304;2022-09-21T03:40:44;6.50;88.25
66337;SHT30;53139;45.576;5.304;2022-09-21T03:43:47;6.44;87.92
66337;SHT30;53139;45.576;5.304;2022-09-21T03:46:50;6.31;88.49
66337;SHT30;53139;45.576;5.304;2022-09-21T03:49:52;6.30;89.01
66337;SHT30;53139;45.576;5.304;2022-09-21T03:52:56;6.27;88.95
66337;SHT30;53139;45.576;5.304;2022-09-21T03:55:58;6.30;88.97
66337;SHT30;53139;45.576;5.304;2022-09-21T03:59:01;6.27;87.78
66337;SHT30;53139;45.576;5.304;2022-09-21T04:02:03;6.12;87.22
66337;SHT30;53139;45.576;5.304;2022-09-21T04:05:12;6.13;87.66
66337;SHT30;53139;45.576;5.304;2022-09-21T04:08:16;6.06;87.89
66337;SHT30;53139;45.576;5.304;2022-09-21T04:11:18;6.09;89.56
66337;SHT30;53139;45.576;5.304;2022-09-21T04:14:24;6.12;88.97
66337;SHT30;53139;45.576;5.304;2022-09-21T04:17:27;6.17;88.11
66337;SHT30;53139;45.576;5.304;2022-09-21T04:20:29;6.14;88.55
66337;SHT30;53139;45.576;5.304;2022-09-21T04:23:32;6.03;88.64
66337;SHT30;53139;45.576;5.304;2022-09-21T04:26:35;6.03;89.20
66337;SHT30;53139;45.576;5.304;2022-09-21T04:29:37;5.98;89.86
66337;SHT30;53139;45.576;5.304;2022-09-21T04:32:40;5.95;89.59
66337;SHT30;53139;45.576;5.304;2022-09-21T04:35:43;5.85;87.73
66337;SHT30;53139;45.576;5.304;2022-09-21T04:38:46;5.78;87.43
66337;SHT30;53139;45.576;5.304;2022-09-21T04:41:49;5.65;87.96
66337;SHT30;53139;45.576;5.304;2022-09-21T04:44:52;5.57;87.33
66337;SHT30;53139;45.576;5.304;2022-09-21T04:47:54;5.72;89.78
66337;SHT30;53139;45.576;5.304;2022-09-21T04:50:56;5.78;89.95
66337;SHT30;53139;45.576;5.304;2022-09-21T04:53:59;5.86;88.75
66337;SHT30;53139;45.576;5.304;2022-09-21T04:57:02;5.98;89.13
66337;SHT30;53139;45.576;5.304;2022-09-21T05:00:05;5.95;88.76
66337;SHT30;53139;45.576;5.304;2022-09-21T05:03:08;5.82;88.32
66337;SHT30;53139;45.576;5.304;2022-09-21T05:06:10;5.84;89.88
66337;SHT30;53139;45.576;5.304;2022-09-21T05:09:14;5.69;87.59
66337;SHT30;53139;45.576;5.304;2022-09-21T05:12:35;5.75;88.73
66337;SHT30;53139;45.576;5.304;2022-09-21T05:15:38;5.68;87.45
66337;SHT30;53139;45.576;5.304;2022-09-21T05:18:40;5.68;90.03
66337;SHT30;53139;45.576;5.304;2022-09-21T05:21:43;5.75;89.83
66337;SHT30;53139;45.576;5.304;2022-09-21T05:24:45;5.72;88.49
66337;SHT30;53139;45.576;5.304;2022-09-21T05:27:48;5.72;89.87
66337;SHT30;53139;45.576;5.304;2022-09-21T05:34:44;5.58;91.20
66337;SHT30;53139;45.576;5.304;2022-09-21T05:38:17;5.55;90.98
66337;SHT30;53139;45.576;5.304;2022-09-21T05:41:20;5.67;88.40
66337;SHT30;53139;45.576;5.304;2022-09-21T05:44:23;5.55;88.34
66337;SHT30;53139;45.576;5.304;2022-09-21T05:47:55;5.48;89.82
66337;SHT30;53139;45.576;5.304;2022-09-21T05:51:13;5.61;89.83
66337;SHT30;53139;45.576;5.304;2022-09-21T05:54:50;5.58;88.79
66337;SHT30;53139;45.576;5.304;2022-09-21T05:58:02;5.65;87.96
66337;SHT30;53139;45.576;5.304;2022-09-21T06:04:10;5.82;89.32
66337;SHT30;53139;45.576;5.304;2022-09-21T06:07:16;5.96;89.24
66337;SHT30;53139;45.576;5.304;2022-09-21T06:10:18;6.01;88.90
66337;SHT30;53139;45.576;5.304;2022-09-21T06:13:21;6.21;89.27
66337;SHT30;53139;45.576;5.304;2022-09-21T06:16:23;6.44;89.41
66337;SHT30;53139;45.576;5.304;2022-09-21T06:19:26;6.42;87.97
66337;SHT30;53139;45.576;5.304;2022-09-21T06:22:28;6.48;89.47
66337;SHT30;53139;45.576;5.304;2022-09-21T06:25:31;6.69;88.82
66337;SHT30;53139;45.576;5.304;2022-09-21T06:28:33;6.78;88.79
66337;SHT30;53139;45.576;5.304;2022-09-21T06:31:36;6.82;88.02
66337;SHT30;53139;45.576;5.304;2022-09-21T06:34:38;6.92;88.93
66337;SHT30;53139;45.576;5.304;2022-09-21T06:37:40;7.23;89.18
66337;SHT30;53139;45.576;5.304;2022-09-21T06:40:43;7.16;87.75
66337;SHT30;53139;45.576;5.304;2022-09-21T06:43:46;7.17;87.29
66337;SHT30;53139;45.576;5.304;2022-09-21T06:46:48;7.33;87.26
66337;SHT30;53139;45.576;5.304;2022-09-21T06:49:51;7.48;87.75
66337;SHT30;53139;45.576;5.304;2022-09-21T06:52:59;7.55;87.35
66337;SHT30;53139;45.576;5.304;2022-09-21T06:56:03;7.58;86.65
66337;SHT30;53139;45.576;5.304;2022-09-21T06:59:05;7.93;87.12
66337;SHT30;53139;45.576;5.304;2022-09-21T07:02:09;8.13;87.51
66337;SHT30;53139;45.576;5.304;2022-09-21T07:05:13;8.07;86.69
66337;SHT30;53139;45.576;5.304;2022-09-21T07:08:16;8.30;86.43
66337;SHT30;53139;45.576;5.304;2022-09-21T07:11:19;8.76;85.94
66337;SHT30;53139;45.576;5.304;2022-09-21T07:14:22;8.85;84.68
66337;SHT30;53139;45.576;5.304;2022-09-21T07:17:24;8.85;84.64
66337;SHT30;53139;45.576;5.304;2022-09-21T07:20:28;8.95;84.51
66337;SHT30;53139;45.576;5.304;2022-09-21T07:23:31;9.02;83.86
66337;SHT30;53139;45.576;5.304;2022-09-21T07:26:33;9.17;83.21
66337;SHT30;53139;45.576;5.304;2022-09-21T07:29:36;9.19;82.87
66337;SHT30;53139;45.576;5.304;2022-09-21T07:32:38;9.31;83.30
66337;SHT30;53139;45.576;5.304;2022-09-21T07:35:49;9.45;82.65
66337;SHT30;53139;45.576;5.304;2022-09-21T07:38:52;9.48;82.46
66337;SHT30;53139;45.576;5.304;2022-09-21T07:41:55;9.59;82.63
66337;SHT30;53139;45.576;5.304;2022-09-21T07:44:59;9.61;81.39
66337;SHT30;53139;45.576;5.304;2022-09-21T07:48:03;9.79;81.62
66337;SHT30;53139;45.576;5.304;2022-09-21T07:51:11;9.93;81.72
66337;SHT30;53139;45.576;5.304;2022-09-21T07:54:16;9.96;80.69
66337;SHT30;53139;45.576;5.304;2022-09-21T07:57:18;10.32;81.09
66337;SHT30;53139;45.576;5.304;2022-09-21T08:00:39;10.52;79.77
66337;SHT30;53139;45.576;5.304;2022-09-21T08:03:42;10.52;78.65
66337;SHT30;53139;45.576;5.304;2022-09-21T08:06:44;10.82;77.74
66337;SHT30;53139;45.576;5.304;2022-09-21T08:09:49;11.47;77.08
66337;SHT30;53139;45.576;5.304;2022-09-21T08:12:53;11.72;75.53
66337;SHT30;53139;45.576;5.304;2022-09-21T08:16:00;11.95;75.48
66337;SHT30;53139;45.576;5.304;2022-09-21T08:19:05;12.25;74.39
66337;SHT30;53139;45.576;5.304;2022-09-21T08:22:08;12.15;74.01
66337;SHT30;53139;45.576;5.304;2022-09-21T08:25:10;12.77;74.69
66337;SHT30;53139;45.576;5.304;2022-09-21T08:28:13;13.08;72.60
66337;SHT30;53139;45.576;5.304;2022-09-21T08:31:17;12.96;72.61
66337;SHT30;53139;45.576;5.304;2022-09-21T08:34:20;12.75;72.27
66337;SHT30;53139;45.576;5.304;2022-09-21T08:37:24;13.72;71.77
66337;SHT30;53139;45.576;5.304;2022-09-21T08:40:27;13.98;70.06
66337;SHT30;53139;45.576;5.304;2022-09-21T08:43:34;14.33;69.50
66337;SHT30;53139;45.576;5.304;2022-09-21T08:46:38;13.71;71.22
66337;SHT30;53139;45.576;5.304;2022-09-21T08:49:46;14.59;68.35
66337;SHT30;53139;45.576;5.304;2022-09-21T08:52:56;14.33;67.48
66337;SHT30;53139;45.576;5.304;2022-09-21T08:56:00;14.43;67.61
66337;SHT30;53139;45.576;5.304;2022-09-21T08:59:10;15.19;65.17
66337;SHT30;53139;45.576;5.304;2022-09-21T09:05:58;15.23;66.42
66337;SHT30;53139;45.576;5.304;2022-09-21T09:22:25;15.70;62.62
66337;SHT30;53139;45.576;5.304;2022-09-21T09:25:35;16.34;62.21
66337;SHT30;53139;45.576;5.304;2022-09-21T09:28:53;15.57;62.91
66337;SHT30;53139;45.576;5.304;2022-09-21T09:31:58;16.13;62.43
66337;SHT30;53139;45.576;5.304;2022-09-21T09:36:05;15.02;60.56
66337;SHT30;53139;45.576;5.304;2022-09-21T09:38:57;17.04;59.58
66337;SHT30;53139;45.576;5.304;2022-09-21T09:42:16;17.40;58.96
66337;SHT30;53139;45.576;5.304;2022-09-21T09:45:54;17.92;56.54
66337;SHT30;53139;45.576;5.304;2022-09-21T09:52:42;18.59;55.77
66337;SHT30;53139;45.576;5.304;2022-09-21T09:55:49;18.68;56.65
66337;SHT30;53139;45.576;5.304;2022-09-21T09:58:56;18.95;54.58
66337;SHT30;53139;45.576;5.304;2022-09-21T10:05:23;18.59;55.20
66337;SHT30;53139;45.576;5.304;2022-09-21T10:11:35;18.87;54.78
66337;SHT30;53139;45.576;5.304;2022-09-21T10:14:38;19.85;53.18
66337;SHT30;53139;45.576;5.304;2022-09-21T10:17:41;19.77;53.46
66337;SHT30;53139;45.576;5.304;2022-09-21T10:21:23;19.36;50.99
66337;SHT30;53139;45.576;5.304;2022-09-21T10:24:50;19.43;51.85
66337;SHT30;53139;45.576;5.304;2022-09-21T10:27:54;20.22;52.27
66337;SHT30;53139;45.576;5.304;2022-09-21T10:31:27;21.08;49.35
66337;SHT30;53139;45.576;5.304;2022-09-21T10:34:33;21.41;49.03
66337;SHT30;53139;45.576;5.304;2022-09-21T10:37:37;20.01;49.71
66337;SHT30;53139;45.576;5.304;2022-09-21T10:41:05;20.08;49.23
66337;SHT30;53139;45.576;5.304;2022-09-21T10:44:15;19.98;50.81
66337;SHT30;53139;45.576;5.304;2022-09-21T10:47:30;20.62;49.48
66337;SHT30;53139;45.576;5.304;2022-09-21T10:50:46;21.02;49.70
66337;SHT30;53139;45.576;5.304;2022-09-21T10:53:50;21.25;48.02
66337;SHT30;53139;45.576;5.304;2022-09-21T10:56:57;22.14;46.72
66337;SHT30;53139;45.576;5.304;2022-09-21T11:06:43;21.56;45.73
66337;SHT30;53139;45.576;5.304;2022-09-21T11:10:08;21.94;46.52
66337;SHT30;53139;45.576;5.304;2022-09-21T11:13:30;22.80;46.08
66337;SHT30;53139;45.576;5.304;2022-09-21T11:16:40;21.05;45.90
66337;SHT30;53139;45.576;5.304;2022-09-21T11:20:24;21.96;47.80
66337;SHT30;53139;45.576;5.304;2022-09-21T11:23:46;23.27;43.30
66337;SHT30;53139;45.576;5.304;2022-09-21T11:47:01;23.03;43.07
66337;SHT30;53139;45.576;5.304;2022-09-21T11:50:17;22.41;42.98
66337;SHT30;53139;45.576;5.304;2022-09-21T11:53:27;22.89;43.33
66337;SHT30;53139;45.576;5.304;2022-09-21T11:56:38;21.62;46.79
66337;SHT30;53139;45.576;5.304;2022-09-21T12:00:15;22.51;43.49
66337;SHT30;53139;45.576;5.304;2022-09-21T12:17:01;23.92;40.33
66337;SHT30;53139;45.576;5.304;2022-09-21T12:20:14;22.60;42.53
66337;SHT30;53139;45.576;5.304;2022-09-21T12:23:21;24.56;39.53
66337;SHT30;53139;45.576;5.304;2022-09-21T12:26:36;24.17;41.05
66337;SHT30;53139;45.576;5.304;2022-09-21T12:29:47;22.22;42.56
66337;SHT30;53139;45.576;5.304;2022-09-21T12:32:58;22.90;41.05
66337;SHT30;53139;45.576;5.304;2022-09-21T12:36:24;22.10;44.37
66337;SHT30;53139;45.576;5.304;2022-09-21T12:39:43;23.42;40.12
66337;SHT30;53139;45.576;5.304;2022-09-21T12:42:53;24.34;40.10
66337;SHT30;53139;45.576;5.304;2022-09-21T12:46:04;24.04;39.06
66337;SHT30;53139;45.576;5.304;2022-09-21T12:49:11;25.24;39.16
66337;SHT30;53139;45.576;5.304;2022-09-21T12:52:22;24.27;41.41
66337;SHT30;53139;45.576;5.304;2022-09-21T12:55:47;23.75;42.25
66337;SHT30;53139;45.576;5.304;2022-09-21T13:02:20;25.31;38.35
66337;SHT30;53139;45.576;5.304;2022-09-21T13:08:34;24.82;40.98
66337;SHT30;53139;45.576;5.304;2022-09-21T13:11:50;25.44;39.07
66337;SHT30;53139;45.576;5.304;2022-09-21T13:15:11;26.83;37.67
66337;SHT30;53139;45.576;5.304;2022-09-21T13:18:22;26.16;40.61
66337;SHT30;53139;45.576;5.304;2022-09-21T13:21:27;24.45;40.14
66337;SHT30;53139;45.576;5.304;2022-09-21T13:24:34;25.49;39.13
66337;SHT30;53139;45.576;5.304;2022-09-21T13:28:15;24.94;37.43
66337;SHT30;53139;45.576;5.304;2022-09-21T13:31:40;23.90;41.91
66337;SHT30;53139;45.576;5.304;2022-09-21T13:34:43;23.83;40.45
66337;SHT30;53139;45.576;5.304;2022-09-21T13:38:22;24.25;40.61
66337;SHT30;53139;45.576;5.304;2022-09-21T13:41:26;24.79;40.00
66337;SHT30;53139;45.576;5.304;2022-09-21T13:44:39;23.17;41.50
66337;SHT30;53139;45.576;5.304;2022-09-21T13:47:45;23.18;40.97
66337;SHT30;53139;45.576;5.304;2022-09-21T13:50:46;24.76;38.35
66337;SHT30;53139;45.576;5.304;2022-09-21T13:53:53;23.35;40.07
66337;SHT30;53139;45.576;5.304;2022-09-21T14:03:43;25.09;38.74
66337;SHT30;53139;45.576;5.304;2022-09-21T14:06:49;26.23;37.00
66337;SHT30;53139;45.576;5.304;2022-09-21T14:10:04;23.17;39.67
66337;SHT30;53139;45.576;5.304;2022-09-21T14:13:25;22.07;41.81
66337;SHT30;53139;45.576;5.304;2022-09-21T14:22:38;24.58;37.58
66337;SHT30;53139;45.576;5.304;2022-09-21T14:25:54;22.83;41.82
66337;SHT30;53139;45.576;5.304;2022-09-21T14:28:57;25.52;38.91
66337;SHT30;53139;45.576;5.304;2022-09-21T14:32:15;26.38;37.42
66337;SHT30;53139;45.576;5.304;2022-09-21T14:35:21;25.64;38.29
66337;SHT30;53139;45.576;5.304;2022-09-21T14:38:28;25.04;38.54
66337;SHT30;53139;45.576;5.304;2022-09-21T14:41:37;24.84;36.86
66337;SHT30;53139;45.576;5.304;2022-09-21T14:44:41;21.83;41.73
66337;SHT30;53139;45.576;5.304;2022-09-21T14:48:15;24.42;39.76
66337;SHT30;53139;45.576;5.304;2022-09-21T14:51:38;23.55;41.60
66337;SHT30;53139;45.576;5.304;2022-09-21T14:55:00;25.27;39.26
66337;SHT30;53139;45.576;5.304;2022-09-21T14:58:36;25.42;40.52
66337;SHT30;53139;45.576;5.304;2022-09-21T15:01:56;24.25;42.03
66337;SHT30;53139;45.576;5.304;2022-09-21T15:05:18;25.30;39.09
66337;SHT30;53139;45.576;5.304;2022-09-21T15:12:18;23.87;40.60
66337;SHT30;53139;45.576;5.304;2022-09-21T15:18:40;24.65;41.00
66337;SHT30;53139;45.576;5.304;2022-09-21T15:21:44;24.61;41.02
66337;SHT30;53139;45.576;5.304;2022-09-21T15:24:58;24.54;39.97
66337;SHT30;53139;45.576;5.304;2022-09-21T15:28:04;25.26;40.10
66337;SHT30;53139;45.576;5.304;2022-09-21T15:31:07;24.58;41.33
66337;SHT30;53139;45.576;5.304;2022-09-21T15:34:12;24.82;38.28
66337;SHT30;53139;45.576;5.304;2022-09-21T15:37:16;24.35;40.13
66337;SHT30;53139;45.576;5.304;2022-09-21T15:40:23;24.25;41.21
66337;SHT30;53139;45.576;5.304;2022-09-21T15:43:26;25.49;39.20
66337;SHT30;53139;45.576;5.304;2022-09-21T15:46:29;24.94;38.45
66337;SHT30;53139;45.576;5.304;2022-09-21T15:49:33;24.96;39.85
66337;SHT30;53139;45.576;5.304;2022-09-21T15:52:40;24.11;40.77
66337;SHT30;53139;45.576;5.304;2022-09-21T15:55:46;24.22;39.59
66337;SHT30;53139;45.576;5.304;2022-09-21T15:58:49;24.35;39.99
66337;SHT30;53139;45.576;5.304;2022-09-21T16:01:54;24.14;40.43
66337;SHT30;53139;45.576;5.304;2022-09-21T16:04:55;23.52;43.65
66337;SHT30;53139;45.576;5.304;2022-09-21T16:08:16;24.20;39.57
66337;SHT30;53139;45.576;5.304;2022-09-21T16:11:32;23.92;41.39
66337;SHT30;53139;45.576;5.304;2022-09-21T16:14:46;22.86;41.23
66337;SHT30;53139;45.576;5.304;2022-09-21T16:18:03;22.99;44.07
66337;SHT30;53139;45.576;5.304;2022-09-21T16:21:33;22.93;43.16
66337;SHT30;53139;45.576;5.304;2022-09-21T16:24:49;23.12;43.29
66337;SHT30;53139;45.576;5.304;2022-09-21T16:27:59;22.17;43.34
66337;SHT30;53139;45.576;5.304;2022-09-21T16:34:31;21.82;45.71
66337;SHT30;53139;45.576;5.304;2022-09-21T16:37:38;21.17;45.57
66337;SHT30;53139;45.576;5.304;2022-09-21T16:40:41;21.24;46.27
66337;SHT30;53139;45.576;5.304;2022-09-21T16:43:43;20.79;47.51
66337;SHT30;53139;45.576;5.304;2022-09-21T16:46:50;20.15;47.50
66337;SHT30;53139;45.576;5.304;2022-09-21T16:49:55;19.91;48.99
66337;SHT30;53139;45.576;5.304;2022-09-21T16:52:59;19.33;51.50
66337;SHT30;53139;45.576;5.304;2022-09-21T16:56:02;19.11;51.12
66337;SHT30;53139;45.576;5.304;2022-09-21T16:59:11;18.47;52.74
66337;SHT30;53139;45.576;5.304;2022-09-21T17:02:16;18.25;53.36
66337;SHT30;53139;45.576;5.304;2022-09-21T17:05:18;18.60;53.54
66337;SHT30;53139;45.576;5.304;2022-09-21T17:08:21;18.39;53.81
66337;SHT30;53139;45.576;5.304;2022-09-21T17:11:25;17.57;55.90
66337;SHT30;53139;45.576;5.304;2022-09-21T17:14:29;17.60;56.41
66337;SHT30;53139;45.576;5.304;2022-09-21T17:17:36;16.77;58.82
66337;SHT30;53139;45.576;5.304;2022-09-21T17:20:42;17.40;57.79
66337;SHT30;53139;45.576;5.304;2022-09-21T17:23:45;17.29;58.35
66337;SHT30;53139;45.576;5.304;2022-09-21T17:26:48;16.54;60.01
66337;SHT30;53139;45.576;5.304;2022-09-21T17:29:50;16.98;59.00
66337;SHT30;53139;45.576;5.304;2022-09-21T17:32:54;16.20;61.42
66337;SHT30;53139;45.576;5.304;2022-09-21T17:35:57;15.82;62.40
66337;SHT30;53139;45.576;5.304;2022-09-21T17:39:00;15.77;62.57
66337;SHT30;53139;45.576;5.304;2022-09-21T17:42:22;15.44;63.56
66337;SHT30;53139;45.576;5.304;2022-09-21T17:45:41;15.47;63.39
66337;SHT30;53139;45.576;5.304;2022-09-21T17:48:48;14.98;65.11
66337;SHT30;53139;45.576;5.304;2022-09-21T17:51:50;14.78;66.00
66337;SHT30;53139;45.576;5.304;2022-09-21T17:55:12;14.44;67.61
66337;SHT30;53139;45.576;5.304;2022-09-21T18:01:39;14.46;68.51
66337;SHT30;53139;45.576;5.304;2022-09-21T18:04:41;14.54;67.82
66337;SHT30;53139;45.576;5.304;2022-09-21T18:07:45;14.43;68.61
66337;SHT30;53139;45.576;5.304;2022-09-21T18:18:18;14.22;69.30
66337;SHT30;53139;45.576;5.304;2022-09-21T18:21:24;14.13;69.92
66337;SHT30;53139;45.576;5.304;2022-09-21T18:24:30;13.78;71.25
66337;SHT30;53139;45.576;5.304;2022-09-21T18:27:33;13.82;70.75
66337;SHT30;53139;45.576;5.304;2022-09-21T18:30:38;13.58;71.79
66337;SHT30;53139;45.576;5.304;2022-09-21T18:33:50;13.54;71.56
66337;SHT30;53139;45.576;5.304;2022-09-21T18:37:32;13.63;70.38
66337;SHT30;53139;45.576;5.304;2022-09-21T18:41:02;13.33;71.98
66337;SHT30;53139;45.576;5.304;2022-09-21T18:44:20;13.05;72.97
66337;SHT30;53139;45.576;5.304;2022-09-21T18:47:34;12.91;74.21
66337;SHT30;53139;45.576;5.304;2022-09-21T18:51:07;13.17;72.95
66337;SHT30;53139;45.576;5.304;2022-09-21T18:54:22;12.95;74.11
66337;SHT30;53139;45.576;5.304;2022-09-21T18:57:25;12.57;75.76
66337;SHT30;53139;45.576;5.304;2022-09-21T19:00:33;12.68;73.42
66337;SHT30;53139;45.576;5.304;2022-09-21T19:03:36;12.33;75.92
66337;SHT30;53139;45.576;5.304;2022-09-21T19:07:02;12.34;75.98
66337;SHT30;53139;45.576;5.304;2022-09-21T19:13:38;12.51;75.31
66337;SHT30;53139;45.576;5.304;2022-09-21T19:16:58;12.71;74.53
66337;SHT30;53139;45.576;5.304;2022-09-21T19:33:22;11.74;77.42
66337;SHT30;53139;45.576;5.304;2022-09-21T19:36:27;11.51;78.81
66337;SHT30;53139;45.576;5.304;2022-09-21T19:39:30;11.78;76.65
66337;SHT30;53139;45.576;5.304;2022-09-21T19:42:52;11.40;79.24
66337;SHT30;53139;45.576;5.304;2022-09-21T19:49:16;11.20;80.15
66337;SHT30;53139;45.576;5.304;2022-09-21T19:52:30;11.00;80.32
66337;SHT30;53139;45.576;5.304;2022-09-21T19:55:33;10.81;82.18
66337;SHT30;53139;45.576;5.304;2022-09-21T19:59:07;11.02;80.69
66337;SHT30;53139;45.576;5.304;2022-09-21T20:02:30;10.92;80.29
66337;SHT30;53139;45.576;5.304;2022-09-21T20:05:57;10.79;82.36
66337;SHT30;53139;45.576;5.304;2022-09-21T20:09:16;11.09;78.27
66337;SHT30;53139;45.576;5.304;2022-09-21T20:12:25;10.72;82.17
66337;SHT30;53139;45.576;5.304;2022-09-21T20:15:55;10.45;82.03
66337;SHT30;53139;45.576;5.304;2022-09-21T20:19:00;10.61;80.10
66337;SHT30;53139;45.576;5.304;2022-09-21T20:22:11;10.32;81.83
66337;SHT30;53139;45.576;5.304;2022-09-21T20:25:25;10.58;81.05
66337;SHT30;53139;45.576;5.304;2022-09-21T20:28:29;10.37;83.22
66337;SHT30;53139;45.576;5.304;2022-09-21T20:31:32;10.32;82.68
66337;SHT30;53139;45.576;5.304;2022-09-21T20:34:34;10.36;82.74
66337;SHT30;53139;45.576;5.304;2022-09-21T20:37:37;10.20;82.56
66337;SHT30;53139;45.576;5.304;2022-09-21T20:40:41;10.17;82.04
66337;SHT30;53139;45.576;5.304;2022-09-21T20:43:43;10.36;81.48
66337;SHT30;53139;45.576;5.304;2022-09-21T20:46:46;10.32;81.23
66337;SHT30;53139;45.576;5.304;2022-09-21T20:49:48;10.16;82.82
66337;SHT30;53139;45.576;5.304;2022-09-21T20:52:51;10.37;81.91
66337;SHT30;53139;45.576;5.304;2022-09-21T20:55:57;10.13;83.25
66337;SHT30;53139;45.576;5.304;2022-09-21T20:59:02;9.95;83.96
66337;SHT30;53139;45.576;5.304;2022-09-21T21:02:05;10.07;84.47
66337;SHT30;53139;45.576;5.304;2022-09-21T21:05:09;9.90;85.54
66337;SHT30;53139;45.576;5.304;2022-09-21T21:08:12;10.05;84.08
66337;SHT30;53139;45.576;5.304;2022-09-21T21:11:17;10.24;81.64
66337;SHT30;53139;45.576;5.304;2022-09-21T21:14:21;9.89;83.60
66337;SHT30;53139;45.576;5.304;2022-09-21T21:17:24;9.75;85.38
66337;SHT30;53139;45.576;5.304;2022-09-21T21:20:26;9.54;87.50
66337;SHT30;53139;45.576;5.304;2022-09-21T21:23:30;9.63;86.97
66337;SHT30;53139;45.576;5.304;2022-09-21T21:26:53;9.67;85.95
66337;SHT30;53139;45.576;5.304;2022-09-21T21:29:55;9.61;85.36
66337;SHT30;53139;45.576;5.304;2022-09-21T21:32:58;9.75;83.38
66337;SHT30;53139;45.576;5.304;2022-09-21T21:36:05;9.40;86.08
66337;SHT30;53139;45.576;5.304;2022-09-21T21:39:09;9.40;86.00
66337;SHT30;53139;45.576;5.304;2022-09-21T21:42:12;9.54;85.16
66337;SHT30;53139;45.576;5.304;2022-09-21T21:45:14;9.51;84.38
66337;SHT30;53139;45.576;5.304;2022-09-21T21:48:17;9.61;83.14
66337;SHT30;53139;45.576;5.304;2022-09-21T21:51:20;9.62;82.87
66337;SHT30;53139;45.576;5.304;2022-09-21T21:54:24;9.59;82.96
66337;SHT30;53139;45.576;5.304;2022-09-21T21:57:26;9.41;84.04
66337;SHT30;53139;45.576;5.304;2022-09-21T22:00:29;9.31;84.52
66337;SHT30;53139;45.576;5.304;2022-09-21T22:03:32;9.33;82.99
66337;SHT30;53139;45.576;5.304;2022-09-21T22:06:36;9.17;84.98
66337;SHT30;53139;45.576;5.304;2022-09-21T22:09:38;9.10;84.83
66337;SHT30;53139;45.576;5.304;2022-09-21T22:12:41;9.07;84.47
66337;SHT30;53139;45.576;5.304;2022-09-21T22:15:44;9.27;83.60
66337;SHT30;53139;45.576;5.304;2022-09-21T22:18:48;9.24;84.16
66337;SHT30;53139;45.576;5.304;2022-09-21T22:21:50;9.12;85.13
66337;SHT30;53139;45.576;5.304;2022-09-21T22:24:53;8.78;86.52
66337;SHT30;53139;45.576;5.304;2022-09-21T22:27:56;8.83;85.19
66337;SHT30;53139;45.576;5.304;2022-09-21T22:31:00;8.83;86.14
66337;SHT30;53139;45.576;5.304;2022-09-21T22:34:03;8.90;86.10
66337;SHT30;53139;45.576;5.304;2022-09-21T22:37:06;8.92;85.51
66337;SHT30;53139;45.576;5.304;2022-09-21T22:40:09;8.67;87.81